This is the latest recevied weather packets stored in our database for station/object W5HKR. If no packets are shown the sender has not sent any weather packets the latest 10 day(s).
| Time | Temp. | Humidity | Pressure | Rain* | Wind** | Luminosity | Snow |
|---|---|---|---|---|---|---|---|
| 1777506036 | 18.33° C | 91% | 990.6 hPa | 0 mm | - | - | - |
| 1777505905 | 28.33° C | 77% | 980.4 hPa | 0 mm | - | - | - |
| 1777505005 | 28.33° C | 76% | 980 hPa | 0 mm | - | - | - |
| 1777504955 | 28.33° C | 76% | 980.4 hPa | 0 mm | - | - | - |
| 1777504703 | 28.33° C | 76% | 980.7 hPa | 0 mm | - | - | - |
| 1777504403 | 28.33° C | 76% | 980.4 hPa | 0 mm | - | - | - |
| 1777504103 | 28.33° C | 76% | 980.8 hPa | 0 mm | - | - | - |
| 1777503875 | 28.89° C | 76% | 981 hPa | 0 mm | - | - | - |
| 1777503804 | 28.89° C | 76% | 980.6 hPa | 0 mm | - | - | - |
| 1777503503 | 29.44° C | 75% | 981 hPa | 0 mm | - | - | - |
| 1777503203 | 29.44° C | 75% | 980.8 hPa | 0 mm | - | - | - |
| 1777502904 | 29.44° C | 74% | 980.9 hPa | 0 mm | - | - | - |
| 1777502795 | 29.44° C | 74% | 980.8 hPa | 0 mm | - | - | - |
| 1777502603 | 29.44° C | 73% | 980.9 hPa | 0 mm | - | - | - |
| 1777502304 | 29.44° C | 74% | 980.7 hPa | 0 mm | - | - | - |
| 1777502005 | 18.33° C | 91% | 990.6 hPa | 0 mm | - | - | - |
| 1777501704 | 18.33° C | 91% | 990.6 hPa | 0 mm | - | - | - |
| 1777501403 | 30° C | 73% | 980.7 hPa | 0 mm | - | - | - |
| 1777501103 | 29.44° C | 73% | 980.7 hPa | 0 mm | - | - | - |
| 1777500804 | 30° C | 71% | 981.3 hPa | 0 mm | - | - | - |
| 1777500637 | 18.33° C | 91% | 990.6 hPa | 0 mm | - | - | - |
| 1777500505 | 18.33° C | 91% | 990.6 hPa | 0 mm | - | - | - |
| 1777500204 | 18.33° C | 91% | 990.6 hPa | 0 mm | - | - | - |
| 1777499904 | 29.44° C | 73% | 980.8 hPa | 0 mm | - | - | - |
| 1777499605 | 30° C | 73% | 980.4 hPa | 0 mm | - | - | - |
* Rain latest hour (hover to see other rain measurements)
** Current wind speed in m/s (hover to see current wind gust speed)